sensor_id;sensor_type;location;lat;lon;timestamp;pressure;altitude;pressure_sealevel;temperature;humidity
60061;BME280;45933;51.336;12.612;2023-11-18T00:01:24;100609.91;;;5.71;62.45
60061;BME280;45933;51.336;12.612;2023-11-18T00:03:49;100604.78;;;5.74;62.78
60061;BME280;45933;51.336;12.612;2023-11-18T00:06:14;100613.44;;;5.74;62.76
60061;BME280;45933;51.336;12.612;2023-11-18T00:08:39;100614.34;;;5.76;62.53
60061;BME280;45933;51.336;12.612;2023-11-18T00:11:05;100619.53;;;5.76;62.53
60061;BME280;45933;51.336;12.612;2023-11-18T00:13:30;100618.69;;;5.79;62.79
60061;BME280;45933;51.336;12.612;2023-11-18T00:15:55;100614.47;;;5.81;62.51
60061;BME280;45933;51.336;12.612;2023-11-18T00:18:21;100614.47;;;5.81;62.28
60061;BME280;45933;51.336;12.612;2023-11-18T00:20:47;100622.22;;;5.81;62.61
60061;BME280;45933;51.336;12.612;2023-11-18T00:23:12;100615.31;;;5.80;62.71
60061;BME280;45933;51.336;12.612;2023-11-18T00:25:38;100610.16;;;5.82;62.46
60061;BME280;45933;51.336;12.612;2023-11-18T00:28:05;100617.06;;;5.83;62.33
60061;BME280;45933;51.336;12.612;2023-11-18T00:30:33;100619.66;;;5.83;62.30
60061;BME280;45933;51.336;12.612;2023-11-18T00:32:58;100617.97;;;5.85;62.39
60061;BME280;45933;51.336;12.612;2023-11-18T00:35:23;100619.75;;;5.86;62.52
60061;BME280;45933;51.336;12.612;2023-11-18T00:37:48;100621.41;;;5.85;62.52
60061;BME280;45933;51.336;12.612;2023-11-18T00:40:14;100628.38;;;5.86;62.66
60061;BME280;45933;51.336;12.612;2023-11-18T00:42:39;100628.41;;;5.88;62.35
60061;BME280;45933;51.336;12.612;2023-11-18T00:45:05;100628.41;;;5.88;62.40
60061;BME280;45933;51.336;12.612;2023-11-18T00:47:30;100629.25;;;5.88;62.47
60061;BME280;45933;51.336;12.612;2023-11-18T00:49:55;100629.25;;;5.88;62.10
60061;BME280;45933;51.336;12.612;2023-11-18T00:52:22;100624.97;;;5.89;62.08
60061;BME280;45933;51.336;12.612;2023-11-18T00:54:48;100629.38;;;5.91;62.37
60061;BME280;45933;51.336;12.612;2023-11-18T00:57:13;100632.84;;;5.92;62.01
60061;BME280;45933;51.336;12.612;2023-11-18T00:59:41;100635.47;;;5.95;62.40
60061;BME280;45933;51.336;12.612;2023-11-18T01:02:07;100630.28;;;5.93;62.03
60061;BME280;45933;51.336;12.612;2023-11-18T01:04:33;100643.25;;;5.95;62.24
60061;BME280;45933;51.336;12.612;2023-11-18T01:06:59;100636.31;;;5.94;62.19
60061;BME280;45933;51.336;12.612;2023-11-18T01:09:24;100638.06;;;5.95;62.08
60061;BME280;45933;51.336;12.612;2023-11-18T01:11:50;100638.06;;;5.95;62.29
60061;BME280;45933;51.336;12.612;2023-11-18T01:14:15;100638.91;;;5.94;62.08
60061;BME280;45933;51.336;12.612;2023-11-18T01:16:42;100639.78;;;5.94;62.51
60061;BME280;45933;51.336;12.612;2023-11-18T01:19:09;100637.19;;;5.94;62.19
60061;BME280;45933;51.336;12.612;2023-11-18T01:21:34;100637.25;;;5.96;62.38
60061;BME280;45933;51.336;12.612;2023-11-18T01:24:01;100635.47;;;5.95;62.04
60061;BME280;45933;51.336;12.612;2023-11-18T01:26:26;100634.66;;;5.96;62.12
60061;BME280;45933;51.336;12.612;2023-11-18T01:28:52;100638.13;;;5.96;61.88
60061;BME280;45933;51.336;12.612;2023-11-18T01:31:17;100637.25;;;5.96;61.88
60061;BME280;45933;51.336;12.612;2023-11-18T01:33:42;100636.34;;;5.95;62.11
60061;BME280;45933;51.336;12.612;2023-11-18T01:36:10;100630.28;;;5.93;61.96
60061;BME280;45933;51.336;12.612;2023-11-18T01:38:36;100641.50;;;5.94;62.18
60061;BME280;45933;51.336;12.612;2023-11-18T01:41:06;100638.94;;;5.95;62.26
60061;BME280;45933;51.336;12.612;2023-11-18T01:43:32;100636.34;;;5.95;62.06
60061;BME280;45933;51.336;12.612;2023-11-18T01:46:03;100632.13;;;5.99;62.17
60061;BME280;45933;51.336;12.612;2023-11-18T01:48:29;100641.56;;;5.97;62.04
60061;BME280;45933;51.336;12.612;2023-11-18T01:50:57;100632.09;;;5.97;61.83
60061;BME280;45933;51.336;12.612;2023-11-18T01:53:24;100637.28;;;5.97;61.86
60061;BME280;45933;51.336;12.612;2023-11-18T01:55:50;100630.34;;;5.96;61.84
60061;BME280;45933;51.336;12.612;2023-11-18T01:58:16;100632.06;;;5.96;61.85
60061;BME280;45933;51.336;12.612;2023-11-18T02:00:45;100637.25;;;5.96;61.85
60061;BME280;45933;51.336;12.612;2023-11-18T02:03:12;100636.31;;;5.94;61.62
60061;BME280;45933;51.336;12.612;2023-11-18T02:05:37;100640.63;;;5.93;61.81
60061;BME280;45933;51.336;12.612;2023-11-18T02:08:03;100638.81;;;5.91;61.60
60061;BME280;45933;51.336;12.612;2023-11-18T02:10:31;100638.72;;;5.86;61.22
60061;BME280;45933;51.336;12.612;2023-11-18T02:13:07;100646.50;;;5.88;61.42
60061;BME280;45933;51.336;12.612;2023-11-18T02:15:38;100640.22;;;5.76;61.34
60061;BME280;45933;51.336;12.612;2023-11-18T02:18:06;100640.97;;;5.72;61.43
60061;BME280;45933;51.336;12.612;2023-11-18T02:20:35;100646.88;;;5.65;61.64
60061;BME280;45933;51.336;12.612;2023-11-18T02:23:01;100649.34;;;5.61;61.70
60061;BME280;45933;51.336;12.612;2023-11-18T02:25:27;100654.38;;;5.55;61.57
60061;BME280;45933;51.336;12.612;2023-11-18T02:27:55;100648.16;;;5.48;61.62
60061;BME280;45933;51.336;12.612;2023-11-18T02:30:20;100655.00;;;5.44;61.97
60061;BME280;45933;51.336;12.612;2023-11-18T02:32:56;100658.31;;;5.39;61.67
60061;BME280;45933;51.336;12.612;2023-11-18T02:35:27;100666.72;;;5.32;62.33
60061;BME280;45933;51.336;12.612;2023-11-18T02:37:54;100659.69;;;5.26;61.99
60061;BME280;45933;51.336;12.612;2023-11-18T02:40:27;100662.16;;;5.21;62.14
60061;BME280;45933;51.336;12.612;2023-11-18T02:42:55;100662.81;;;5.13;62.06
60061;BME280;45933;51.336;12.612;2023-11-18T02:45:23;100669.56;;;5.08;62.46
60061;BME280;45933;51.336;12.612;2023-11-18T02:47:49;100669.41;;;5.02;62.49
60061;BME280;45933;51.336;12.612;2023-11-18T02:50:14;100683.94;;;4.96;62.57
60061;BME280;45933;51.336;12.612;2023-11-18T02:52:40;100694.13;;;4.92;62.59
60061;BME280;45933;51.336;12.612;2023-11-18T02:55:06;100686.25;;;4.87;62.84
60061;BME280;45933;51.336;12.612;2023-11-18T02:57:33;100682.63;;;4.81;62.55
60061;BME280;45933;51.336;12.612;2023-11-18T02:59:59;100692.84;;;4.76;63.15
60061;BME280;45933;51.336;12.612;2023-11-18T03:02:26;100691.84;;;4.71;63.06
60061;BME280;45933;51.336;12.612;2023-11-18T03:04:53;100695.16;;;4.67;63.47
60061;BME280;45933;51.336;12.612;2023-11-18T03:07:18;100698.53;;;4.64;63.30
60061;BME280;45933;51.336;12.612;2023-11-18T03:09:43;100695.91;;;4.63;63.55
60061;BME280;45933;51.336;12.612;2023-11-18T03:12:12;100702.75;;;4.61;63.81
60061;BME280;45933;51.336;12.612;2023-11-18T03:14:37;100707.91;;;4.61;64.07
60061;BME280;45933;51.336;12.612;2023-11-18T03:17:03;100697.53;;;4.59;64.14
60061;BME280;45933;51.336;12.612;2023-11-18T03:19:34;100693.25;;;4.60;64.07
60061;BME280;45933;51.336;12.612;2023-11-18T03:22:00;100700.13;;;4.59;63.88
60061;BME280;45933;51.336;12.612;2023-11-18T03:24:25;100701.00;;;4.60;64.05
60061;BME280;45933;51.336;12.612;2023-11-18T03:26:51;100702.78;;;4.62;64.03
60061;BME280;45933;51.336;12.612;2023-11-18T03:29:16;100702.75;;;4.61;63.95
60061;BME280;45933;51.336;12.612;2023-11-18T03:31:42;100703.59;;;4.60;63.66
60061;BME280;45933;51.336;12.612;2023-11-18T03:34:09;100707.88;;;4.59;63.71
60061;BME280;45933;51.336;12.612;2023-11-18T03:36:35;100710.38;;;4.58;63.98
60061;BME280;45933;51.336;12.612;2023-11-18T03:39:00;100712.09;;;4.57;63.74
60061;BME280;45933;51.336;12.612;2023-11-18T03:41:26;100721.50;;;4.55;63.95
60061;BME280;45933;51.336;12.612;2023-11-18T03:43:52;100711.19;;;4.55;63.88
60061;BME280;45933;51.336;12.612;2023-11-18T03:46:17;100714.50;;;4.51;63.95
60061;BME280;45933;51.336;12.612;2023-11-18T03:48:44;100717.09;;;4.51;63.80
60061;BME280;45933;51.336;12.612;2023-11-18T03:51:09;100727.28;;;4.46;63.88
60061;BME280;45933;51.336;12.612;2023-11-18T03:53:35;100731.53;;;4.44;64.18
60061;BME280;45933;51.336;12.612;2023-11-18T03:56:00;100730.59;;;4.42;64.07
60061;BME280;45933;51.336;12.612;2023-11-18T03:58:27;100729.72;;;4.42;64.37
60061;BME280;45933;51.336;12.612;2023-11-18T04:00:52;100734.84;;;4.40;64.25
60061;BME280;45933;51.336;12.612;2023-11-18T04:03:18;100733.13;;;4.41;64.43
60061;BME280;45933;51.336;12.612;2023-11-18T04:05:44;100730.56;;;4.41;64.50
60061;BME280;45933;51.336;12.612;2023-11-18T04:08:09;100731.50;;;4.43;64.36
60061;BME280;45933;51.336;12.612;2023-11-18T04:10:34;100731.56;;;4.46;64.72
60061;BME280;45933;51.336;12.612;2023-11-18T04:13:00;100735.06;;;4.48;64.59
60061;BME280;45933;51.336;12.612;2023-11-18T04:15:25;100730.88;;;4.52;64.60
60061;BME280;45933;51.336;12.612;2023-11-18T04:17:52;100716.31;;;4.54;64.78
60061;BME280;45933;51.336;12.612;2023-11-18T04:20:23;100727.69;;;4.60;64.60
60061;BME280;45933;51.336;12.612;2023-11-18T04:22:48;100730.28;;;4.60;64.51
60061;BME280;45933;51.336;12.612;2023-11-18T04:25:14;100727.72;;;4.62;64.31
60061;BME280;45933;51.336;12.612;2023-11-18T04:27:40;100727.72;;;4.62;64.75
60061;BME280;45933;51.336;12.612;2023-11-18T04:30:06;100730.31;;;4.62;64.59
60061;BME280;45933;51.336;12.612;2023-11-18T04:32:31;100735.47;;;4.62;64.37
60061;BME280;45933;51.336;12.612;2023-11-18T04:35:00;100737.19;;;4.61;64.38
60061;BME280;45933;51.336;12.612;2023-11-18T04:37:32;100730.28;;;4.60;64.24
60061;BME280;45933;51.336;12.612;2023-11-18T04:39:58;100735.44;;;4.60;64.65
60061;BME280;45933;51.336;12.612;2023-11-18T04:42:23;100731.13;;;4.59;64.70
60061;BME280;45933;51.336;12.612;2023-11-18T04:44:48;100737.19;;;4.61;64.70
60061;BME280;45933;51.336;12.612;2023-11-18T04:47:14;100741.47;;;4.61;64.78
60061;BME280;45933;51.336;12.612;2023-11-18T04:49:39;100742.34;;;4.61;64.73
60061;BME280;45933;51.336;12.612;2023-11-18T04:52:05;100740.66;;;4.63;65.22
60061;BME280;45933;51.336;12.612;2023-11-18T04:54:31;100738.97;;;4.64;65.01
60061;BME280;45933;51.336;12.612;2023-11-18T04:56:56;100737.34;;;4.67;65.00
60061;BME280;45933;51.336;12.612;2023-11-18T04:59:23;100738.31;;;4.71;65.40
60061;BME280;45933;51.336;12.612;2023-11-18T05:01:48;100728.91;;;4.73;65.13
60061;BME280;45933;51.336;12.612;2023-11-18T05:04:13;100741.88;;;4.75;64.90
60061;BME280;45933;51.336;12.612;2023-11-18T05:06:39;100733.28;;;4.76;65.28
60061;BME280;45933;51.336;12.612;2023-11-18T05:09:04;100740.28;;;4.80;65.21
60061;BME280;45933;51.336;12.612;2023-11-18T05:11:33;100735.09;;;4.80;65.21
60061;BME280;45933;51.336;12.612;2023-11-18T05:13:58;100743.81;;;4.83;65.22
60061;BME280;45933;51.336;12.612;2023-11-18T05:16:24;100736.09;;;4.85;65.02
60061;BME280;45933;51.336;12.612;2023-11-18T05:18:49;100732.75;;;4.87;65.16
60061;BME280;45933;51.336;12.612;2023-11-18T05:21:14;100737.09;;;4.88;65.48
60061;BME280;45933;51.336;12.612;2023-11-18T05:23:40;100743.19;;;4.90;65.08
60061;BME280;45933;51.336;12.612;2023-11-18T05:26:05;100745.84;;;4.93;65.00
60061;BME280;45933;51.336;12.612;2023-11-18T05:28:31;100748.44;;;4.95;65.17
60061;BME280;45933;51.336;12.612;2023-11-18T05:30:57;100744.22;;;4.97;65.22
60061;BME280;45933;51.336;12.612;2023-11-18T05:33:27;100750.25;;;4.97;65.41
60061;BME280;45933;51.336;12.612;2023-11-18T05:35:54;100754.59;;;4.98;65.30
60061;BME280;45933;51.336;12.612;2023-11-18T05:38:19;100752.88;;;4.99;65.42
60061;BME280;45933;51.336;12.612;2023-11-18T05:40:47;100759.84;;;5.02;65.41
60061;BME280;45933;51.336;12.612;2023-11-18T05:43:25;100760.00;;;5.06;65.29
60061;BME280;45933;51.336;12.612;2023-11-18T05:45:53;100756.50;;;5.06;65.27
60061;BME280;45933;51.336;12.612;2023-11-18T05:48:37;100748.00;;;5.10;65.36
60061;BME280;45933;51.336;12.612;2023-11-18T05:51:02;100752.34;;;5.11;65.35
60061;BME280;45933;51.336;12.612;2023-11-18T05:53:28;100748.97;;;5.13;65.50
60061;BME280;45933;51.336;12.612;2023-11-18T05:55:54;100742.13;;;5.15;65.44
60061;BME280;45933;51.336;12.612;2023-11-18T05:58:19;100737.06;;;5.18;65.18
60061;BME280;45933;51.336;12.612;2023-11-18T06:00:46;100738.00;;;5.22;65.16
60061;BME280;45933;51.336;12.612;2023-11-18T06:03:12;100744.06;;;5.22;65.24
60061;BME280;45933;51.336;12.612;2023-11-18T06:05:37;100748.41;;;5.25;65.02
60061;BME280;45933;51.336;12.612;2023-11-18T06:08:02;100751.03;;;5.27;65.28
60061;BME280;45933;51.336;12.612;2023-11-18T06:10:29;100759.72;;;5.29;65.23
60061;BME280;45933;51.336;12.612;2023-11-18T06:12:56;100751.97;;;5.29;65.19
60061;BME280;45933;51.336;12.612;2023-11-18T06:15:23;100752.00;;;5.30;65.36
60061;BME280;45933;51.336;12.612;2023-11-18T06:17:48;100755.47;;;5.32;65.18
60061;BME280;45933;51.336;12.612;2023-11-18T06:20:14;100752.97;;;5.34;65.06
60061;BME280;45933;51.336;12.612;2023-11-18T06:22:39;100749.53;;;5.35;65.19
60061;BME280;45933;51.336;12.612;2023-11-18T06:25:05;100740.06;;;5.35;65.00
60061;BME280;45933;51.336;12.612;2023-11-18T06:27:33;100747.00;;;5.38;65.06
60061;BME280;45933;51.336;12.612;2023-11-18T06:29:58;100740.16;;;5.38;65.07
60061;BME280;45933;51.336;12.612;2023-11-18T06:32:23;100744.50;;;5.39;65.03
60061;BME280;45933;51.336;12.612;2023-11-18T06:34:51;100740.19;;;5.40;65.32
60061;BME280;45933;51.336;12.612;2023-11-18T06:37:17;100745.41;;;5.41;65.13
60061;BME280;45933;51.336;12.612;2023-11-18T06:39:42;100747.19;;;5.44;65.33
60061;BME280;45933;51.336;12.612;2023-11-18T06:42:10;100740.25;;;5.43;65.16
60061;BME280;45933;51.336;12.612;2023-11-18T06:44:37;100747.13;;;5.42;65.00
60061;BME280;45933;51.336;12.612;2023-11-18T06:47:03;100746.34;;;5.43;65.24
60061;BME280;45933;51.336;12.612;2023-11-18T06:49:30;100745.50;;;5.44;65.33
60061;BME280;45933;51.336;12.612;2023-11-18T06:51:59;100742.06;;;5.45;65.25
60061;BME280;45933;51.336;12.612;2023-11-18T06:54:29;100741.19;;;5.45;65.13
60061;BME280;45933;51.336;12.612;2023-11-18T06:56:55;100742.94;;;5.46;65.45
60061;BME280;45933;51.336;12.612;2023-11-18T06:59:21;100748.97;;;5.46;65.39
60061;BME280;45933;51.336;12.612;2023-11-18T07:01:46;100745.63;;;5.50;65.36
60061;BME280;45933;51.336;12.612;2023-11-18T07:04:11;100752.56;;;5.51;65.26
60061;BME280;45933;51.336;12.612;2023-11-18T07:06:37;100754.34;;;5.54;65.63
60061;BME280;45933;51.336;12.612;2023-11-18T07:09:07;100751.81;;;5.56;65.52
60061;BME280;45933;51.336;12.612;2023-11-18T07:11:42;100750.97;;;5.57;65.45
60061;BME280;45933;51.336;12.612;2023-11-18T07:14:09;100760.53;;;5.59;65.42
60061;BME280;45933;51.336;12.612;2023-11-18T07:16:35;100768.31;;;5.61;65.73
60061;BME280;45933;51.336;12.612;2023-11-18T07:19:00;100770.09;;;5.63;65.63
60061;BME280;45933;51.336;12.612;2023-11-18T07:21:26;100773.59;;;5.65;65.63
60061;BME280;45933;51.336;12.612;2023-11-18T07:23:51;100780.53;;;5.66;65.75
60061;BME280;45933;51.336;12.612;2023-11-18T07:26:16;100788.31;;;5.68;65.69
60061;BME280;45933;51.336;12.612;2023-11-18T07:28:41;100798.69;;;5.69;65.74
60061;BME280;45933;51.336;12.612;2023-11-18T07:31:09;100802.22;;;5.71;65.88
60061;BME280;45933;51.336;12.612;2023-11-18T07:33:34;100797.03;;;5.71;65.87
60061;BME280;45933;51.336;12.612;2023-11-18T07:35:59;100790.19;;;5.73;66.05
60061;BME280;45933;51.336;12.612;2023-11-18T07:38:25;100797.94;;;5.73;66.09
60061;BME280;45933;51.336;12.612;2023-11-18T07:40:52;100797.16;;;5.76;66.05
60061;BME280;45933;51.336;12.612;2023-11-18T07:43:21;100798.91;;;5.77;66.36
60061;BME280;45933;51.336;12.612;2023-11-18T07:45:47;100799.00;;;5.80;66.10
60061;BME280;45933;51.336;12.612;2023-11-18T07:48:15;100799.03;;;5.82;65.94
60061;BME280;45933;51.336;12.612;2023-11-18T07:50:42;100789.56;;;5.84;66.38
60061;BME280;45933;51.336;12.612;2023-11-18T07:53:12;100803.47;;;5.87;66.23
60061;BME280;45933;51.336;12.612;2023-11-18T07:55:38;100805.22;;;5.88;66.38
60061;BME280;45933;51.336;12.612;2023-11-18T07:58:07;100813.97;;;5.92;66.64
60061;BME280;45933;51.336;12.612;2023-11-18T08:00:39;100804.56;;;5.95;66.54
60061;BME280;45933;51.336;12.612;2023-11-18T08:03:06;100811.53;;;5.98;66.67
60061;BME280;45933;51.336;12.612;2023-11-18T08:05:36;100814.19;;;6.01;66.31
60061;BME280;45933;51.336;12.612;2023-11-18T08:08:01;100813.38;;;6.03;66.40
60061;BME280;45933;51.336;12.612;2023-11-18T08:10:27;100816.00;;;6.05;66.46
60061;BME280;45933;51.336;12.612;2023-11-18T08:12:53;100822.13;;;6.07;66.38
60061;BME280;45933;51.336;12.612;2023-11-18T08:15:20;100823.00;;;6.08;66.90
60061;BME280;45933;51.336;12.612;2023-11-18T08:17:45;100818.75;;;6.11;66.56
60061;BME280;45933;51.336;12.612;2023-11-18T08:20:10;100822.31;;;6.16;66.93
60061;BME280;45933;51.336;12.612;2023-11-18T08:22:40;100827.59;;;6.21;66.57
60061;BME280;45933;51.336;12.612;2023-11-18T08:25:07;100825.13;;;6.25;66.77
60061;BME280;45933;51.336;12.612;2023-11-18T08:27:34;100822.69;;;6.32;66.41
60061;BME280;45933;51.336;12.612;2023-11-18T08:30:01;100820.28;;;6.39;66.45
60061;BME280;45933;51.336;12.612;2023-11-18T08:32:26;100816.09;;;6.44;66.12
60061;BME280;45933;51.336;12.612;2023-11-18T08:34:51;100814.59;;;6.54;65.90
60061;BME280;45933;51.336;12.612;2023-11-18T08:37:16;100812.22;;;6.65;66.12
60061;BME280;45933;51.336;12.612;2023-11-18T08:39:42;100815.00;;;6.74;65.88
60061;BME280;45933;51.336;12.612;2023-11-18T08:42:07;100813.47;;;6.84;65.87
60061;BME280;45933;51.336;12.612;2023-11-18T08:44:32;100813.66;;;6.91;65.44
60061;BME280;45933;51.336;12.612;2023-11-18T08:46:58;100809.50;;;6.99;65.43
60061;BME280;45933;51.336;12.612;2023-11-18T08:49:24;100811.44;;;7.10;64.89
60061;BME280;45933;51.336;12.612;2023-11-18T08:51:50;100802.16;;;7.22;65.19
60061;BME280;45933;51.336;12.612;2023-11-18T08:54:21;100798.88;;;7.31;64.42
60061;BME280;45933;51.336;12.612;2023-11-18T08:57:06;100799.25;;;7.49;64.27
60061;BME280;45933;51.336;12.612;2023-11-18T08:59:49;100800.44;;;7.68;65.80
60061;BME280;45933;51.336;12.612;2023-11-18T09:02:17;100793.88;;;7.90;63.91
60061;BME280;45933;51.336;12.612;2023-11-18T09:04:43;100799.56;;;8.19;64.38
60061;BME280;45933;51.336;12.612;2023-11-18T09:07:09;100814.00;;;8.58;63.37
60061;BME280;45933;51.336;12.612;2023-11-18T09:09:35;100800.69;;;9.00;61.81
60061;BME280;45933;51.336;12.612;2023-11-18T09:12:01;100806.50;;;9.52;62.22
60061;BME280;45933;51.336;12.612;2023-11-18T09:14:28;100799.16;;;10.04;60.32
60061;BME280;45933;51.336;12.612;2023-11-18T09:16:53;100809.94;;;10.53;59.79
60061;BME280;45933;51.336;12.612;2023-11-18T09:19:24;100817.09;;;10.86;56.41
60061;BME280;45933;51.336;12.612;2023-11-18T09:21:50;100822.41;;;11.11;56.08
60061;BME280;45933;51.336;12.612;2023-11-18T09:24:17;100821.59;;;11.24;54.33
60061;BME280;45933;51.336;12.612;2023-11-18T09:26:45;100819.03;;;11.29;54.69
60061;BME280;45933;51.336;12.612;2023-11-18T09:29:13;100818.09;;;11.17;54.26
60061;BME280;45933;51.336;12.612;2023-11-18T09:31:43;100823.28;;;11.11;54.18
60061;BME280;45933;51.336;12.612;2023-11-18T09:34:08;100815.44;;;11.02;54.79
60061;BME280;45933;51.336;12.612;2023-11-18T09:36:41;100815.31;;;10.76;54.35
60061;BME280;45933;51.336;12.612;2023-11-18T09:39:08;100817.81;;;10.56;53.60
60061;BME280;45933;51.336;12.612;2023-11-18T09:41:34;100824.66;;;10.39;53.54
60061;BME280;45933;51.336;12.612;2023-11-18T09:44:00;100821.03;;;10.23;54.22
60061;BME280;45933;51.336;12.612;2023-11-18T09:46:28;100824.38;;;10.11;55.25
60061;BME280;45933;51.336;12.612;2023-11-18T09:49:28;100827.84;;;10.10;56.21
60061;BME280;45933;51.336;12.612;2023-11-18T09:51:59;100823.34;;;9.89;55.26
60061;BME280;45933;51.336;12.612;2023-11-18T09:54:42;100829.34;;;9.84;55.32
60061;BME280;45933;51.336;12.612;2023-11-18T10:00:07;100829.19;;;9.65;55.67
60061;BME280;45933;51.336;12.612;2023-11-18T10:02:45;100838.56;;;9.50;55.73
60061;BME280;45933;51.336;12.612;2023-11-18T10:05:12;100831.53;;;9.41;55.59
60061;BME280;45933;51.336;12.612;2023-11-18T10:07:41;100838.34;;;9.28;55.23
60061;BME280;45933;51.336;12.612;2023-11-18T10:10:10;100830.41;;;9.19;55.75
60061;BME280;45933;51.336;12.612;2023-11-18T10:12:42;100833.75;;;9.07;55.79
60061;BME280;45933;51.336;12.612;2023-11-18T10:15:13;100825.84;;;9.00;55.87
60061;BME280;45933;51.336;12.612;2023-11-18T10:17:41;100829.25;;;8.96;55.63
60061;BME280;45933;51.336;12.612;2023-11-18T10:20:47;100810.22;;;8.98;56.33
60061;BME280;45933;51.336;12.612;2023-11-18T10:23:15;100813.63;;;8.93;56.72
60061;BME280;45933;51.336;12.612;2023-11-18T10:25:50;100814.50;;;8.96;56.11
60061;BME280;45933;51.336;12.612;2023-11-18T10:28:36;100815.53;;;9.07;56.77
60061;BME280;45933;51.336;12.612;2023-11-18T10:31:04;100799.06;;;9.08;56.17
60061;BME280;45933;51.336;12.612;2023-11-18T10:33:37;100803.50;;;9.17;56.14
60061;BME280;45933;51.336;12.612;2023-11-18T10:36:04;100800.19;;;9.29;55.99
60061;BME280;45933;51.336;12.612;2023-11-18T10:38:31;100807.19;;;9.37;54.90
60061;BME280;45933;51.336;12.612;2023-11-18T10:40:58;100797.81;;;9.52;55.38
60061;BME280;45933;51.336;12.612;2023-11-18T10:43:24;100797.97;;;9.67;55.10
60061;BME280;45933;51.336;12.612;2023-11-18T10:46:04;100800.72;;;9.85;55.16
60061;BME280;45933;51.336;12.612;2023-11-18T10:48:30;100799.91;;;9.89;53.69
60061;BME280;45933;51.336;12.612;2023-11-18T10:50:55;100800.88;;;10.04;53.72
60061;BME280;45933;51.336;12.612;2023-11-18T10:53:24;100804.56;;;10.24;53.85
60061;BME280;45933;51.336;12.612;2023-11-18T10:55:51;100791.59;;;10.36;53.40
60061;BME280;45933;51.336;12.612;2023-11-18T10:58:17;100788.25;;;10.56;53.63
60061;BME280;45933;51.336;12.612;2023-11-18T11:00:50;100790.94;;;10.71;52.59
60061;BME280;45933;51.336;12.612;2023-11-18T11:03:17;100800.53;;;10.77;52.14
60061;BME280;45933;51.336;12.612;2023-11-18T11:05:44;100795.34;;;10.81;51.30
60061;BME280;45933;51.336;12.612;2023-11-18T11:08:13;100797.16;;;10.97;51.21
60061;BME280;45933;51.336;12.612;2023-11-18T11:10:43;100804.19;;;11.27;53.00
60061;BME280;45933;51.336;12.612;2023-11-18T11:13:09;100805.16;;;11.65;54.54
60061;BME280;45933;51.336;12.612;2023-11-18T11:15:40;100797.38;;;12.12;53.99
60061;BME280;45933;51.336;12.612;2023-11-18T11:18:08;100797.31;;;12.53;50.79
60061;BME280;45933;51.336;12.612;2023-11-18T11:20:42;100787.66;;;12.81;47.99
60061;BME280;45933;51.336;12.612;2023-11-18T11:23:21;100787.59;;;13.03;49.88
60061;BME280;45933;51.336;12.612;2023-11-18T11:25:59;100770.16;;;12.99;48.68
60061;BME280;45933;51.336;12.612;2023-11-18T11:28:34;100770.19;;;12.88;47.32
60061;BME280;45933;51.336;12.612;2023-11-18T11:31:16;100767.63;;;12.74;47.72
60061;BME280;45933;51.336;12.612;2023-11-18T11:34:06;100765.06;;;12.57;48.73
60061;BME280;45933;51.336;12.612;2023-11-18T11:36:44;100760.78;;;12.30;48.69
60061;BME280;45933;51.336;12.612;2023-11-18T11:39:12;100759.94;;;12.09;48.52
60061;BME280;45933;51.336;12.612;2023-11-18T11:41:44;100758.19;;;12.14;50.91
60061;BME280;45933;51.336;12.612;2023-11-18T11:44:12;100763.38;;;12.34;51.76
60061;BME280;45933;51.336;12.612;2023-11-18T11:46:38;100759.81;;;12.62;52.05
60061;BME280;45933;51.336;12.612;2023-11-18T11:49:07;100757.06;;;12.99;50.48
60061;BME280;45933;51.336;12.612;2023-11-18T11:54:13;100747.97;;;13.64;48.57
60061;BME280;45933;51.336;12.612;2023-11-18T11:56:44;100736.50;;;13.77;47.17
60061;BME280;45933;51.336;12.612;2023-11-18T11:59:15;100729.56;;;13.72;45.08
60061;BME280;45933;51.336;12.612;2023-11-18T12:01:41;100733.19;;;13.57;45.35
60061;BME280;45933;51.336;12.612;2023-11-18T12:04:10;100730.69;;;13.40;45.36
60061;BME280;45933;51.336;12.612;2023-11-18T12:06:46;100725.53;;;13.26;46.11
60061;BME280;45933;51.336;12.612;2023-11-18T12:09:13;100715.94;;;13.22;46.88
60061;BME280;45933;51.336;12.612;2023-11-18T12:11:45;100698.47;;;13.26;46.77
60061;BME280;45933;51.336;12.612;2023-11-18T12:14:14;100694.06;;;13.36;45.59
60061;BME280;45933;51.336;12.612;2023-11-18T12:17:10;100695.56;;;13.64;47.31
60061;BME280;45933;51.336;12.612;2023-11-18T12:19:37;100692.13;;;13.57;44.09
60061;BME280;45933;51.336;12.612;2023-11-18T12:22:18;100683.31;;;13.65;44.35
60061;BME280;45933;51.336;12.612;2023-11-18T12:35:22;100672.38;;;13.09;44.96
60061;BME280;45933;51.336;12.612;2023-11-18T12:38:19;100677.47;;;13.37;44.43
60061;BME280;45933;51.336;12.612;2023-11-18T12:40:56;100670.34;;;13.55;45.69
60061;BME280;45933;51.336;12.612;2023-11-18T12:43:47;100673.66;;;13.73;45.64
60061;BME280;45933;51.336;12.612;2023-11-18T12:49:22;100664.97;;;13.68;43.67
60061;BME280;45933;51.336;12.612;2023-11-18T12:51:52;100661.53;;;13.59;43.80
60061;BME280;45933;51.336;12.612;2023-11-18T12:54:27;100651.94;;;13.58;43.32
60061;BME280;45933;51.336;12.612;2023-11-18T12:56:55;100638.94;;;13.49;43.49
60061;BME280;45933;51.336;12.612;2023-11-18T12:59:21;100631.13;;;13.45;44.08
60061;BME280;45933;51.336;12.612;2023-11-18T13:01:49;100618.84;;;13.51;44.74
60061;BME280;45933;51.336;12.612;2023-11-18T13:04:27;100615.44;;;13.42;42.79
60061;BME280;45933;51.336;12.612;2023-11-18T13:06:53;100610.13;;;13.49;44.49
60061;BME280;45933;51.336;12.612;2023-11-18T13:09:19;100618.00;;;13.51;43.46
60061;BME280;45933;51.336;12.612;2023-11-18T13:12:02;100630.13;;;13.58;43.80